createdAt,value
2018-01-25T00:01:39.156Z,22.30
2018-01-25T00:04:07.484Z,22.30
2018-01-25T00:06:34.994Z,22.30
2018-01-25T00:09:02.436Z,22.30
2018-01-25T00:11:29.911Z,22.20
2018-01-25T00:13:58.374Z,22.20
2018-01-25T00:16:25.949Z,22.20
2018-01-25T00:18:53.512Z,22.30
2018-01-25T00:21:21.892Z,22.20
2018-01-25T00:23:49.452Z,22.20
2018-01-25T00:26:17.007Z,22.20
2018-01-25T00:28:44.572Z,22.20
2018-01-25T00:31:12.024Z,22.20
2018-01-25T00:33:39.481Z,22.20
2018-01-25T00:36:07.044Z,22.20
2018-01-25T00:38:34.517Z,22.20
2018-01-25T00:41:02.036Z,22.20
2018-01-25T00:43:29.496Z,22.20
2018-01-25T00:45:57.041Z,22.20
2018-01-25T00:48:24.513Z,22.20
2018-01-25T00:50:51.980Z,22.20
2018-01-25T00:53:19.451Z,22.30
2018-01-25T00:55:46.907Z,22.20
2018-01-25T00:58:14.366Z,22.20
2018-01-25T01:00:41.916Z,22.20
2018-01-25T01:03:09.381Z,22.20
2018-01-25T01:05:37.159Z,22.20
2018-01-25T01:08:04.908Z,22.20
2018-01-25T01:10:32.368Z,22.20
2018-01-25T01:12:59.824Z,22.20
2018-01-25T01:15:27.469Z,22.20
2018-01-25T01:17:54.959Z,22.20
2018-01-25T01:20:22.408Z,22.20
2018-01-25T01:22:50.708Z,22.20
2018-01-25T01:25:18.957Z,22.20
2018-01-25T01:27:46.410Z,22.20
2018-01-25T01:30:14.057Z,22.10
2018-01-25T01:32:41.513Z,22.20
2018-01-25T01:35:08.972Z,22.10
2018-01-25T01:37:36.436Z,22.20
2018-01-25T01:40:04.008Z,22.10
2018-01-25T01:42:31.644Z,22.10
2018-01-25T01:44:59.232Z,22.10
2018-01-25T01:47:26.707Z,22.10
2018-01-25T01:49:54.168Z,22.10
2018-01-25T01:52:21.797Z,22.10
2018-01-25T01:54:49.256Z,22.10
2018-01-25T01:57:16.716Z,22.10
2018-01-25T01:59:44.260Z,22.10
2018-01-25T02:02:11.732Z,22.10
2018-01-25T02:04:39.181Z,22.10
2018-01-25T02:07:06.677Z,22.10
2018-01-25T02:09:34.336Z,22.10
2018-01-25T02:12:01.837Z,22.10
2018-01-25T02:14:29.300Z,22.10
2018-01-25T02:16:56.970Z,22.10
2018-01-25T02:19:24.428Z,22.10
2018-01-25T02:21:52.034Z,22.10
2018-01-25T02:24:19.721Z,22.10
2018-01-25T02:26:47.172Z,22.10
2018-01-25T02:29:14.649Z,22.00
2018-01-25T02:31:42.105Z,22.00
2018-01-25T02:34:09.591Z,22.00
2018-01-25T02:36:37.061Z,22.00
2018-01-25T02:39:04.521Z,22.10
2018-01-25T02:41:32.200Z,22.10
2018-01-25T02:44:00.482Z,22.10
2018-01-25T02:46:28.036Z,22.10
2018-01-25T02:48:55.532Z,22.00
2018-01-25T02:51:22.989Z,22.10
2018-01-25T02:53:50.460Z,22.00
2018-01-25T02:56:17.913Z,22.00
2018-01-25T02:58:45.376Z,22.10
2018-01-25T03:01:12.862Z,22.10
2018-01-25T03:03:40.363Z,22.00
2018-01-25T03:06:07.816Z,22.10
2018-01-25T03:08:35.320Z,22.10
2018-01-25T03:11:02.769Z,22.00
2018-01-25T03:13:30.230Z,22.00
2018-01-25T03:15:57.675Z,22.00
2018-01-25T03:18:25.406Z,22.00
2018-01-25T03:20:53.181Z,22.00
2018-01-25T03:25:53.492Z,22.00
2018-01-25T03:28:20.949Z,22.00
2018-01-25T03:30:48.435Z,22.10
2018-01-25T03:33:15.923Z,22.00
2018-01-25T03:35:43.378Z,22.00
2018-01-25T03:38:10.900Z,22.00
2018-01-25T03:40:38.668Z,22.00
2018-01-25T03:43:06.140Z,22.00
2018-01-25T03:45:33.614Z,22.00
2018-01-25T03:48:01.250Z,22.00
2018-01-25T03:50:28.708Z,22.00
2018-01-25T03:52:56.201Z,22.00
2018-01-25T03:55:23.645Z,22.00
2018-01-25T03:57:51.109Z,22.00
2018-01-25T04:00:18.561Z,22.00
2018-01-25T04:02:46.026Z,22.00
2018-01-25T04:05:13.477Z,22.00
2018-01-25T04:07:40.948Z,22.00
2018-01-25T04:10:08.468Z,22.00
2018-01-25T04:12:36.125Z,22.00
2018-01-25T04:15:03.574Z,22.00
2018-01-25T04:17:31.036Z,22.00
2018-01-25T04:19:58.538Z,22.00
2018-01-25T04:22:26.000Z,21.90
2018-01-25T04:24:53.465Z,21.90
2018-01-25T04:27:20.919Z,21.90
2018-01-25T04:29:48.397Z,21.90
2018-01-25T04:32:15.913Z,21.90
2018-01-25T04:34:43.412Z,22.00
2018-01-25T04:37:11.013Z,22.00
2018-01-25T04:39:38.525Z,22.00
2018-01-25T04:42:05.989Z,22.00
2018-01-25T04:44:33.465Z,22.00
2018-01-25T04:47:00.925Z,22.00
2018-01-25T04:49:28.408Z,22.00
2018-01-25T04:51:55.874Z,22.00
2018-01-25T04:54:23.534Z,22.00
2018-01-25T04:56:50.982Z,22.00
2018-01-25T04:59:18.445Z,22.00
2018-01-25T05:01:45.914Z,22.00
2018-01-25T05:04:13.358Z,22.00
2018-01-25T05:06:40.916Z,22.00
2018-01-25T05:09:08.393Z,22.00
2018-01-25T05:11:36.005Z,22.00
2018-01-25T05:14:03.500Z,22.00
2018-01-25T05:16:30.951Z,22.00
2018-01-25T05:18:58.413Z,22.00
2018-01-25T05:21:25.852Z,22.00
2018-01-25T05:23:53.442Z,21.90
2018-01-25T05:26:20.930Z,21.90
2018-01-25T05:28:48.388Z,21.90
2018-01-25T05:31:15.851Z,22.00
2018-01-25T05:33:43.329Z,21.90
2018-01-25T05:36:10.778Z,21.90
2018-01-25T05:38:38.345Z,21.90
2018-01-25T05:41:05.843Z,21.80
2018-01-25T05:43:33.321Z,21.80
2018-01-25T05:46:00.821Z,21.70
2018-01-25T05:48:29.061Z,21.80
2018-01-25T05:50:56.693Z,21.80
2018-01-25T05:53:24.225Z,21.90
2018-01-25T05:55:51.740Z,21.90
2018-01-25T05:58:19.199Z,22.00
2018-01-25T06:00:46.649Z,22.00
2018-01-25T06:03:14.427Z,22.00
2018-01-25T06:05:42.177Z,22.10
2018-01-25T06:08:09.833Z,22.10
2018-01-25T06:10:37.403Z,22.10
2018-01-25T06:13:04.854Z,22.10
2018-01-25T06:15:32.505Z,22.10
2018-01-25T06:17:59.961Z,22.10
2018-01-25T06:20:27.432Z,22.20
2018-01-25T06:22:54.900Z,22.20
2018-01-25T06:25:23.289Z,22.20
2018-01-25T06:27:50.841Z,22.20
2018-01-25T06:30:18.330Z,22.20
2018-01-25T06:32:45.920Z,22.30
2018-01-25T06:35:13.465Z,22.30
2018-01-25T06:37:40.914Z,22.30
2018-01-25T06:40:08.369Z,22.30
2018-01-25T06:42:35.856Z,22.30
2018-01-25T06:45:03.311Z,22.30
2018-01-25T06:47:30.813Z,22.40
2018-01-25T06:49:58.461Z,22.30
2018-01-25T06:52:25.937Z,22.30
2018-01-25T06:54:53.387Z,22.20
2018-01-25T06:57:20.848Z,22.20
2018-01-25T06:59:48.309Z,22.10
2018-01-25T07:02:15.756Z,22.10
2018-01-25T07:04:43.220Z,22.10
2018-01-25T07:07:10.781Z,22.10
2018-01-25T07:09:38.416Z,22.10
2018-01-25T07:12:05.997Z,22.00
2018-01-25T07:14:33.653Z,22.00
2018-01-25T07:17:01.109Z,22.00
2018-01-25T07:19:28.583Z,22.00
2018-01-25T07:21:56.048Z,22.00
2018-01-25T07:24:23.601Z,22.00
2018-01-25T07:26:51.252Z,22.00
2018-01-25T07:29:18.705Z,22.00
2018-01-25T07:31:46.156Z,22.00
2018-01-25T07:34:13.655Z,22.00
2018-01-25T07:36:41.196Z,22.00
2018-01-25T07:39:08.801Z,22.00
2018-01-25T07:41:37.211Z,22.00
2018-01-25T07:44:04.745Z,22.00
2018-01-25T07:46:32.296Z,22.00
2018-01-25T07:48:59.946Z,22.00
2018-01-25T07:51:27.412Z,21.90
2018-01-25T07:53:54.937Z,22.00
2018-01-25T07:56:22.594Z,22.00
2018-01-25T07:58:50.055Z,21.90
2018-01-25T08:01:17.612Z,22.00
2018-01-25T08:03:45.073Z,22.00
2018-01-25T08:06:12.541Z,22.00
2018-01-25T08:08:40.174Z,22.00
2018-01-25T08:11:07.770Z,22.00
2018-01-25T08:13:39.153Z,22.00
2018-01-25T08:16:12.165Z,22.00
2018-01-25T08:18:39.621Z,22.00
2018-01-25T08:21:07.120Z,22.00
2018-01-25T08:23:34.749Z,22.00
2018-01-25T08:26:02.338Z,22.00
2018-01-25T08:28:29.794Z,22.00
2018-01-25T08:30:57.360Z,22.00
2018-01-25T08:33:24.809Z,22.00
2018-01-25T08:35:52.394Z,22.00
2018-01-25T08:38:19.834Z,22.00
2018-01-25T08:40:47.424Z,22.00
2018-01-25T08:43:14.873Z,22.00
2018-01-25T08:45:42.325Z,22.00
2018-01-25T08:48:09.782Z,22.00
2018-01-25T08:50:37.530Z,22.00
2018-01-25T08:53:05.166Z,22.00
2018-01-25T08:55:32.628Z,22.00
2018-01-25T08:58:00.226Z,22.00
2018-01-25T09:00:27.677Z,22.00
2018-01-25T09:02:55.137Z,22.00
2018-01-25T09:05:22.600Z,22.00
2018-01-25T09:07:50.432Z,22.00
2018-01-25T09:10:17.918Z,22.00
2018-01-25T09:12:45.349Z,22.00
2018-01-25T09:15:12.903Z,22.00
2018-01-25T09:17:40.530Z,22.00
2018-01-25T09:20:07.947Z,22.00
2018-01-25T09:22:35.394Z,22.00
2018-01-25T09:25:03.186Z,22.00
2018-01-25T09:27:30.944Z,22.00
2018-01-25T09:29:58.430Z,22.00
2018-01-25T09:32:26.080Z,22.00
2018-01-25T09:34:53.549Z,22.10
2018-01-25T09:37:21.034Z,22.10
2018-01-25T09:39:48.476Z,22.10
2018-01-25T09:42:15.928Z,22.10
2018-01-25T09:44:43.408Z,22.10
2018-01-25T09:47:10.857Z,22.10
2018-01-25T09:49:38.368Z,22.10
2018-01-25T09:52:05.997Z,22.10
2018-01-25T09:54:33.517Z,22.10
2018-01-25T09:57:00.973Z,22.10
2018-01-25T09:59:28.432Z,22.10
2018-01-25T10:01:55.961Z,22.10
2018-01-25T10:04:23.379Z,22.10
2018-01-25T10:06:50.893Z,22.10
2018-01-25T10:09:18.501Z,22.10
2018-01-25T10:11:45.985Z,22.10
2018-01-25T10:14:13.564Z,22.10
2018-01-25T10:16:41.132Z,22.10
2018-01-25T10:19:08.697Z,22.00
2018-01-25T10:21:36.148Z,22.10
2018-01-25T10:24:03.609Z,22.00
2018-01-25T10:26:31.464Z,22.00
2018-01-25T10:28:58.922Z,22.00
2018-01-25T10:31:26.376Z,22.00
2018-01-25T10:33:53.842Z,22.00
2018-01-25T10:36:21.297Z,22.00
2018-01-25T10:38:48.756Z,22.00
2018-01-25T10:41:16.244Z,22.00
2018-01-25T10:43:43.892Z,22.00
2018-01-25T10:46:12.116Z,22.00
2018-01-25T10:48:39.605Z,22.00
2018-01-25T10:51:07.173Z,22.00
2018-01-25T10:53:34.667Z,22.00
2018-01-25T10:56:02.073Z,22.00
2018-01-25T10:58:29.532Z,22.00
2018-01-25T11:01:02.629Z,22.00
2018-01-25T11:03:30.393Z,22.00
2018-01-25T11:05:57.848Z,22.00
2018-01-25T11:08:25.314Z,22.00
2018-01-25T11:10:53.078Z,22.00
2018-01-25T11:13:20.718Z,22.00
2018-01-25T11:15:48.328Z,22.00
2018-01-25T11:18:16.060Z,22.00
2018-01-25T11:20:43.553Z,22.00
2018-01-25T11:23:11.317Z,22.00
2018-01-25T11:25:38.921Z,22.00
2018-01-25T11:28:06.434Z,22.00
2018-01-25T11:30:33.902Z,22.10
2018-01-25T11:33:01.437Z,22.20
2018-01-25T11:35:29.080Z,22.20
2018-01-25T11:37:56.568Z,22.30
2018-01-25T11:40:24.029Z,22.30
2018-01-25T11:42:51.477Z,22.40
2018-01-25T11:45:18.945Z,22.40
2018-01-25T11:47:46.464Z,22.50
2018-01-25T11:50:13.921Z,22.50
2018-01-25T11:52:41.592Z,22.60
2018-01-25T11:55:09.182Z,22.60
2018-01-25T11:57:36.638Z,22.70
2018-01-25T12:00:04.297Z,22.70
2018-01-25T12:02:31.741Z,22.80
2018-01-25T12:04:59.984Z,22.90
2018-01-25T12:07:27.560Z,22.90
2018-01-25T12:09:55.149Z,22.90
2018-01-25T12:12:24.147Z,23.00
2018-01-25T12:14:51.602Z,23.00
2018-01-25T12:17:19.110Z,23.00
2018-01-25T12:19:46.745Z,23.00
2018-01-25T12:22:14.201Z,23.00
2018-01-25T12:24:41.742Z,23.00
2018-01-25T12:27:09.194Z,22.90
2018-01-25T12:29:36.739Z,22.90
2018-01-25T12:32:04.324Z,22.90
2018-01-25T12:34:31.768Z,22.90
2018-01-25T12:36:59.227Z,22.90
2018-01-25T12:39:26.684Z,22.90
2018-01-25T12:41:54.153Z,22.80
2018-01-25T12:44:21.701Z,22.80
2018-01-25T12:46:49.356Z,22.80
2018-01-25T12:49:16.804Z,22.80
2018-01-25T12:51:44.385Z,22.80
2018-01-25T12:54:11.861Z,22.80
2018-01-25T12:56:42.368Z,22.80
2018-01-25T12:59:09.842Z,22.80
2018-01-25T13:01:37.473Z,22.80
2018-01-25T13:04:04.951Z,22.80
2018-01-25T13:06:32.409Z,22.80
2018-01-25T13:09:00.009Z,22.80
2018-01-25T13:11:27.720Z,22.80
2018-01-25T13:13:55.483Z,22.80
2018-01-25T13:16:23.018Z,22.80
2018-01-25T13:18:50.600Z,22.80
2018-01-25T13:21:18.077Z,22.80
2018-01-25T13:23:45.532Z,22.80
2018-01-25T13:26:12.988Z,22.80
2018-01-25T13:28:40.437Z,22.80
2018-01-25T13:31:08.010Z,22.80
2018-01-25T13:33:41.189Z,22.80
2018-01-25T13:36:08.677Z,22.80
2018-01-25T13:38:36.129Z,22.80
2018-01-25T13:41:03.580Z,22.80
2018-01-25T13:43:31.032Z,22.80
2018-01-25T13:45:58.497Z,22.80
2018-01-25T13:48:26.050Z,22.80
2018-01-25T13:50:53.509Z,22.80
2018-01-25T13:53:21.134Z,22.90
2018-01-25T13:55:48.637Z,22.80
2018-01-25T13:58:16.083Z,22.90
2018-01-25T14:00:43.646Z,22.90
2018-01-25T14:03:11.119Z,23.00
2018-01-25T14:05:38.582Z,23.00
2018-01-25T14:08:06.270Z,23.10
2018-01-25T14:10:33.856Z,23.10
2018-01-25T14:13:01.312Z,23.10
2018-01-25T14:15:28.930Z,23.10
2018-01-25T14:17:57.406Z,23.10
2018-01-25T14:20:25.171Z,23.10
2018-01-25T14:22:52.631Z,23.10
2018-01-25T14:25:20.088Z,23.10
2018-01-25T14:27:47.709Z,23.10
2018-01-25T14:30:15.239Z,23.10
2018-01-25T14:32:42.746Z,23.20
2018-01-25T14:35:10.323Z,23.20
2018-01-25T14:37:37.888Z,23.20
2018-01-25T14:40:05.447Z,23.20
2018-01-25T14:42:33.212Z,23.20
2018-01-25T14:45:00.967Z,23.20
2018-01-25T14:47:28.452Z,23.20
2018-01-25T14:49:56.056Z,23.20
2018-01-25T14:52:23.520Z,23.20
2018-01-25T14:54:51.109Z,23.20
2018-01-25T14:57:18.746Z,23.20
2018-01-25T14:59:46.325Z,23.20
2018-01-25T15:02:14.090Z,23.20
2018-01-25T15:04:41.723Z,23.20
2018-01-25T15:07:09.197Z,23.20
2018-01-25T15:09:36.712Z,23.20
2018-01-25T15:12:04.188Z,23.20
